Strona główna
METAR-TAF:

METAR-TAF

Lotnisko :

Sitiawan, Malezja

Szerokość geograficzna: 04-13N, Długość geograficzna: 100-42E, wysokość: 7 m

Aktualna obserwacja pogody

Raport powstał 48 minut temu, godzina 10:00 UTC
Wiatr 3 kt z kierunków zmiennych
Temperatura 31°C
Wilgotność 79%
Ciśnienie 1007 hPa
Widzialność 10 km lub więcej
Mało chmury na wysokości 1700 ft, Cumulonimbus.
Przerywane chmury na wysokości 14000 ft
Przerywane chmury na wysokości 28000 ft

METAR: WMBA 171000Z VRB03KT 9999 FEW017CB BKN140 BKN280 31/27 Q1007

czas: 18:48 (10:48 UTC)


TAF: brakujący

Obserwacja i prognoza pogody dla ponad 4000 lotnisk (raport METAR i TAF).

Dostępne stacje oznaczono żółtymi i czerwonymi punktami na mapie.

Najedź kursorem aby zobaczyć nazwę stacji.

Kliknij aby zobaczyć obserwacje i prognozy pogody.

Aby zmienić mapę: kliknij na zielony przycisk z czarnym krzyżykiem, aby powiększyć; na zielony przycisk z myślnikiem, aby pomniejszyć; na zielone strzałki, aby przejść do map sąsiednich.


METAR-TAF: